Time;durP1;ratioP1;P1;durP2;ratioP2;P2;SDS_P1;SDS_P2;PMS_P1;PMS_P2;Temp;Humidity;BMP_temperature;BMP_pressure;BME280_temperature;BME280_humidity;BME280_pressure;Samples;Min_cycle;Max_cycle;Signal;HPM_P1;HPM_P2
2023/01/27 00:09:27;;;;;;;15.10;6.70;;;;;;;2.62;69.02;101231.78;20864667;28;20232;-92
2023/01/27 00:19:30;;;;;;;13.53;6.47;;;;;;;3.59;65.39;101227.72;20876950;28;20196;-92
2023/01/27 00:29:38;;;;;;;15.43;7.13;;;;;;;3.66;65.40;101227.53;20897383;28;20204;-91
2023/01/27 00:39:42;;;;;;;10.97;6.30;;;;;;;3.04;66.96;101235.94;20879099;28;20219;-92
2023/01/27 00:49:44;;;;;;;10.23;5.90;;;;;;;3.69;65.53;101238.13;20864826;28;20239;-91
2023/01/27 00:59:48;;;;;;;11.53;6.30;;;;;;;3.73;66.74;101244.88;20881383;28;20192;-90
2023/01/27 01:09:52;;;;;;;14.17;7.50;;;;;;;3.01;69.04;101258.63;20852154;28;20641;-91
2023/01/27 01:19:56;;;;;;;12.07;7.93;;;;;;;2.26;71.28;101264.31;20888059;28;20197;-90
2023/01/27 01:30:00;;;;;;;9.03;6.23;;;;;;;2.06;72.51;101277.69;20882686;28;20239;-90
2023/01/27 01:40:02;;;;;;;11.80;7.07;;;;;;;2.90;68.79;101282.56;20903494;28;20227;-92
2023/01/27 01:50:04;;;;;;;13.87;8.90;;;;;;;2.37;70.00;101282.88;20886459;28;20228;-88
2023/01/27 02:00:09;;;;;;;15.37;9.70;;;;;;;3.14;66.94;101282.47;20895766;28;20466;-93
2023/01/27 02:10:14;;;;;;;16.93;10.47;;;;;;;2.43;70.56;101298.53;20872458;28;20216;-92
2023/01/27 02:20:33;;;;;;;18.10;9.90;;;;;;;2.77;69.12;101280.09;20869142;28;20188;-91
2023/01/27 02:30:37;;;;;;;21.20;10.90;;;;;;;3.05;68.67;101276.47;20884034;28;20612;-91
2023/01/27 02:40:40;;;;;;;18.20;10.90;;;;;;;2.81;68.89;101280.47;20886534;28;20213;-90
2023/01/27 02:50:43;;;;;;;16.67;9.80;;;;;;;2.83;68.83;101278.25;20846950;28;20277;-92
2023/01/27 03:00:45;;;;;;;16.10;8.73;;;;;;;2.91;69.02;101288.97;20851521;28;20188;-91
2023/01/27 03:10:52;;;;;;;14.30;7.67;;;;;;;3.23;66.85;101269.84;20881806;28;20273;-91
2023/01/27 03:21:01;;;;;;;10.57;6.87;;;;;;;2.73;68.88;101272.50;20866621;28;20200;-93
2023/01/27 03:31:18;;;;;;;13.23;8.13;;;;;;;3.44;66.80;101282.19;20882944;28;20220;-92
2023/01/27 03:51:47;;;;;;;13.60;8.47;;;;;;;3.15;68.96;101287.78;20906829;28;20211;-89
2023/01/27 04:01:49;;;;;;;14.63;8.40;;;;;;;3.09;68.60;101285.16;20903692;28;20192;-86
2023/01/27 04:11:56;;;;;;;14.07;8.87;;;;;;;3.20;68.83;101279.53;20889575;28;20505;-86
2023/01/27 04:22:00;;;;;;;16.43;8.87;;;;;;;3.22;69.27;101280.09;20863369;28;20204;-87
2023/01/27 04:32:08;;;;;;;15.43;8.87;;;;;;;2.81;70.13;101283.22;20889624;28;20262;-86
2023/01/27 04:42:10;;;;;;;14.53;9.30;;;;;;;3.02;70.33;101287.22;20892061;28;20269;-86
2023/01/27 04:52:12;;;;;;;19.33;10.73;;;;;;;3.13;70.95;101295.50;20893848;28;20242;-89
2023/01/27 05:02:15;;;;;;;15.80;10.03;;;;;;;2.77;71.42;101309.78;20901495;28;20683;-86
2023/01/27 05:12:17;;;;;;;17.20;10.97;;;;;;;3.51;69.63;101311.47;20912752;28;20231;-88
2023/01/27 05:22:19;;;;;;;16.73;8.97;;;;;;;3.32;70.08;101316.41;20917075;28;20316;-86
2023/01/27 05:32:21;;;;;;;18.20;9.30;;;;;;;3.82;68.37;101320.31;20902638;28;20215;-84
2023/01/27 05:42:24;;;;;;;14.03;8.97;;;;;;;3.20;70.06;101323.97;20917893;28;20216;-83
2023/01/27 05:52:26;;;;;;;13.50;8.80;;;;;;;3.92;67.74;101332.44;20889251;28;20216;-88
2023/01/27 06:02:28;;;;;;;17.03;9.93;;;;;;;3.76;68.41;101333.28;20882491;28;20305;-90
2023/01/27 06:12:30;;;;;;;11.87;8.27;;;;;;;3.58;67.96;101339.09;20896335;28;20231;-87
2023/01/27 06:22:32;;;;;;;12.23;8.50;;;;;;;3.47;67.46;101337.25;20894646;28;20196;-88
2023/01/27 06:32:35;;;;;;;12.03;8.53;;;;;;;3.30;69.52;101339.97;20893350;28;20608;-87
2023/01/27 06:42:41;;;;;;;11.73;8.53;;;;;;;3.39;68.73;101359.84;20885703;28;20694;-89
2023/01/27 06:52:43;;;;;;;9.80;7.73;;;;;;;3.74;68.38;101356.88;20884505;28;20212;-86
2023/01/27 07:02:46;;;;;;;13.63;8.83;;;;;;;3.47;69.87;101367.78;20891183;28;20196;-88
2023/01/27 07:12:48;;;;;;;11.47;8.20;;;;;;;3.25;71.19;101376.81;20902440;28;20219;-87
2023/01/27 07:22:50;;;;;;;10.97;8.63;;;;;;;3.85;68.75;101390.16;20901976;28;20192;-88
2023/01/27 07:32:54;;;;;;;9.57;8.27;;;;;;;4.09;68.07;101388.06;20908824;28;20216;-88
2023/01/27 07:42:59;;;;;;;12.03;8.20;;;;;;;4.01;69.39;101402.38;20884251;28;20220;-88
2023/01/27 07:53:03;;;;;;;9.10;7.50;;;;;;;3.64;70.28;101408.41;20879407;28;20521;-87
2023/01/27 08:03:05;;;;;;;10.10;7.10;;;;;;;4.42;68.12;101403.06;20889239;28;20564;-88
2023/01/27 08:13:07;;;;;;;13.17;7.63;;;;;;;4.24;69.32;101407.81;20890009;28;20285;-88
2023/01/27 08:23:10;;;;;;;7.97;7.17;;;;;;;3.84;69.61;101404.31;20889414;28;20205;-88
2023/01/27 08:33:12;;;;;;;7.37;6.00;;;;;;;4.51;67.87;101415.47;20895338;28;20257;-87
2023/01/27 08:43:15;;;;;;;6.53;5.83;;;;;;;4.47;68.04;101422.63;20880701;28;20193;-88
2023/01/27 08:53:17;;;;;;;7.83;5.47;;;;;;;3.94;70.02;101430.34;20881250;28;20216;-88
2023/01/27 09:03:19;;;;;;;7.70;6.23;;;;;;;4.64;67.16;101437.38;20874417;28;20592;-88
2023/01/27 09:13:22;;;;;;;11.83;8.67;;;;;;;4.78;66.43;101451.72;20882844;28;20259;-88
2023/01/27 09:23:24;;;;;;;10.73;8.13;;;;;;;4.00;69.89;101457.13;20902435;28;20192;-88
2023/01/27 09:33:26;;;;;;;6.77;6.10;;;;;;;4.17;68.93;101475.78;20900753;28;20536;-88
2023/01/27 09:43:38;;;;;;;5.00;4.50;;;;;;;4.18;68.35;101469.13;20884530;28;20200;-88
2023/01/27 09:54:06;;;;;;;7.63;5.53;;;;;;;3.89;70.58;101477.50;20881760;28;20285;-87
2023/01/27 10:04:29;;;;;;;7.90;6.17;;;;;;;3.92;70.32;101488.13;20890281;28;20196;-88
2023/01/27 10:14:41;;;;;;;8.57;6.13;;;;;;;4.24;69.67;101488.47;20871597;28;20274;-88
2023/01/27 10:24:57;;;;;;;7.43;6.57;;;;;;;3.99;70.02;101493.56;20902576;28;20195;-88
2023/01/27 10:35:12;;;;;;;6.87;6.03;;;;;;;4.51;68.42;101487.81;20894493;28;20232;-87
2023/01/27 10:45:20;;;;;;;8.53;6.77;;;;;;;4.49;67.84;101484.44;20879321;28;20493;-91
2023/01/27 10:55:27;;;;;;;8.23;6.73;;;;;;;4.22;69.30;101490.66;20873903;28;20239;-88
2023/01/27 11:05:36;;;;;;;6.53;5.83;;;;;;;4.61;67.84;101488.81;20891936;28;20192;-88
2023/01/27 11:15:38;;;;;;;6.03;5.43;;;;;;;4.59;67.28;101479.88;20888822;28;20223;-88
2023/01/27 11:25:47;;;;;;;6.50;5.77;;;;;;;5.21;65.47;101479.66;20876632;28;20191;-88
2023/01/27 11:35:50;;;;;;;7.30;6.20;;;;;;;4.84;66.40;101484.13;20919149;28;20219;-88
2023/01/27 11:45:59;;;;;;;5.70;5.20;;;;;;;4.08;68.33;101469.78;20879343;28;20201;-87
2023/01/27 11:56:06;;;;;;;4.87;4.47;;;;;;;4.96;65.24;101470.94;20885632;28;20224;-87
2023/01/27 12:06:20;;;;;;;4.03;3.60;;;;;;;4.61;66.57;101463.75;20888751;28;20215;-87
2023/01/27 12:16:43;;;;;;;3.27;3.07;;;;;;;4.94;63.22;101453.66;20862765;28;20242;-87
2023/01/27 12:26:45;;;;;;;2.87;2.67;;;;;;;4.58;64.12;101453.13;20889487;28;20540;-89
2023/01/27 12:36:49;;;;;;;2.80;2.10;;;;;;;4.92;62.88;101453.91;20880488;28;20528;-86
2023/01/27 12:47:24;;;;;;;2.30;2.20;;;;;;;5.10;61.74;101438.84;20880277;28;20597;-87
2023/01/27 12:57:28;;;;;;;1.80;1.70;;;;;;;5.02;61.34;101439.28;20873787;28;20690;-87
2023/01/27 13:07:37;;;;;;;1.67;1.57;;;;;;;4.71;62.03;101440.78;20880747;28;20678;-88
2023/01/27 13:17:53;;;;;;;2.17;2.07;;;;;;;5.07;61.52;101447.69;20871182;28;20683;-88
2023/01/27 13:27:58;;;;;;;2.63;2.43;;;;;;;4.70;62.28;101462.22;20899237;28;20630;-87
2023/01/27 13:38:20;;;;;;;3.93;3.63;;;;;;;4.70;63.06;101467.78;20888192;28;20305;-87
2023/01/27 13:48:30;;;;;;;3.87;3.57;;;;;;;4.22;64.46;101473.13;20888225;28;20217;-87
2023/01/27 13:58:42;;;;;;;3.67;3.00;;;;;;;4.57;62.43;101481.22;20890590;28;20226;-87
2023/01/27 14:09:20;;;;;;;2.13;1.93;;;;;;;4.58;62.65;101482.91;20903085;28;20513;-87
2023/01/27 14:19:50;;;;;;;1.80;1.70;;;;;;;4.99;61.40;101485.22;20882584;28;20296;-88
2023/01/27 14:30:06;;;;;;;1.30;1.20;;;;;;;5.03;59.14;101488.31;20904497;28;20620;-88
2023/01/27 14:40:31;;;;;;;1.90;1.77;;;;;;;5.16;58.46;101487.13;20876013;28;20222;-89
2023/01/27 14:51:05;;;;;;;1.10;1.10;;;;;;;5.27;58.49;101483.34;20886001;28;20189;-88
2023/01/27 15:01:19;;;;;;;1.80;1.00;;;;;;;5.03;59.30;101488.31;20865669;28;20269;-90
2023/01/27 15:11:46;;;;;;;1.40;1.30;;;;;;;5.10;59.97;101500.13;20892626;28;20231;-88
2023/01/27 15:22:31;;;;;;;1.90;1.70;;;;;;;5.07;58.89;101515.38;20889829;28;20218;-90
2023/01/27 15:32:36;;;;;;;2.40;2.20;;;;;;;5.11;59.53;101521.31;20892236;28;20219;-85
2023/01/27 15:43:01;;;;;;;2.73;1.87;;;;;;;4.26;62.20;101527.13;20864369;28;20282;-85
2023/01/27 15:53:11;;;;;;;3.10;2.80;;;;;;;4.57;61.25;101545.22;20882980;28;20232;-84
2023/01/27 16:03:20;;;;;;;2.70;2.50;;;;;;;4.09;63.39;101549.34;20867639;28;20709;-86
2023/01/27 16:13:25;;;;;;;2.07;1.97;;;;;;;4.20;63.63;101561.53;20871759;28;20651;-87
2023/01/27 16:23:36;;;;;;;3.33;2.37;;;;;;;4.68;61.79;101564.63;20875334;28;20200;-87
2023/01/27 16:33:45;;;;;;;4.07;3.77;;;;;;;4.48;62.25;101561.50;20917518;28;20527;-87
2023/01/27 16:43:53;;;;;;;3.93;2.50;;;;;;;4.18;64.21;101578.47;20873861;28;20192;-87
2023/01/27 16:53:57;;;;;;;2.20;2.10;;;;;;;4.41;63.35;101588.63;20889496;28;20582;-86
2023/01/27 17:04:01;;;;;;;3.17;2.70;;;;;;;4.69;62.37;101594.16;20872697;28;20228;-86
2023/01/27 17:14:28;;;;;;;2.67;2.47;;;;;;;4.36;63.92;101594.13;20865300;28;20780;-86
2023/01/27 17:24:35;;;;;;;12.87;7.97;;;;;;;4.36;63.18;101606.09;20883287;28;20746;-85
2023/01/27 17:34:39;;;;;;;2.30;2.10;;;;;;;4.28;63.27;101619.53;20866545;28;20219;-87
2023/01/27 17:44:45;;;;;;;2.90;2.70;;;;;;;4.61;61.50;101616.00;20880401;28;20200;-89
2023/01/27 17:54:48;;;;;;;2.50;2.30;;;;;;;4.54;61.10;101616.13;20893389;28;20575;-87
2023/01/27 18:04:51;;;;;;;3.13;2.87;;;;;;;3.64;63.81;101627.94;20878866;28;20191;-88
2023/01/27 18:14:54;;;;;;;2.93;2.70;;;;;;;4.10;63.25;101615.00;20890274;28;20570;-87
2023/01/27 18:25:01;;;;;;;4.40;3.27;;;;;;;3.84;64.86;101635.88;20901246;28;20222;-87
2023/01/27 18:35:20;;;;;;;3.87;3.57;;;;;;;4.04;63.34;101650.19;20849671;28;20216;-86
2023/01/27 18:45:23;;;;;;;3.37;2.77;;;;;;;3.47;63.04;101663.13;20898250;28;20255;-88
2023/01/27 18:55:28;;;;;;;2.87;2.57;;;;;;;4.21;61.03;101671.72;20859604;28;20286;-87
2023/01/27 19:05:33;;;;;;;4.57;3.23;;;;;;;3.92;61.13;101671.63;20886898;28;20199;-87
2023/01/27 19:15:45;;;;;;;2.90;2.67;;;;;;;4.03;60.93;101690.22;20884189;28;20235;-89
2023/01/27 19:25:52;;;;;;;3.27;2.67;;;;;;;3.87;60.33;101696.53;20877491;28;20187;-88
2023/01/27 19:35:59;;;;;;;3.50;3.13;;;;;;;3.95;58.81;101681.41;20869277;28;20227;-87
2023/01/27 19:46:11;;;;;;;5.57;3.00;;;;;;;4.08;59.56;101681.16;20874563;28;20243;-87
2023/01/27 19:56:19;;;;;;;3.57;2.37;;;;;;;3.93;57.87;101683.59;20853326;28;20497;-85
2023/01/27 20:06:26;;;;;;;1.50;1.37;;;;;;;3.81;57.28;101702.22;20865225;28;20536;-90
2023/01/27 20:16:29;;;;;;;1.50;1.40;;;;;;;3.62;56.01;101702.34;20880454;28;20227;-90
2023/01/27 20:26:31;;;;;;;2.53;1.97;;;;;;;4.23;54.83;101695.41;20929496;28;20195;-89
2023/01/27 20:36:35;;;;;;;3.37;2.57;;;;;;;3.27;58.29;101702.34;20891902;28;20228;-87
2023/01/27 20:46:37;;;;;;;2.10;1.97;;;;;;;3.88;56.32;101712.13;20905993;28;20200;-86
2023/01/27 20:56:39;;;;;;;2.70;1.97;;;;;;;3.90;56.07;101712.72;20887495;28;20490;-85
2023/01/27 21:06:42;;;;;;;3.83;2.50;;;;;;;3.72;56.46;101725.94;20874027;28;20192;-91
2023/01/27 21:16:44;;;;;;;2.90;2.03;;;;;;;3.77;55.52;101726.88;20886286;28;20223;-90
2023/01/27 21:26:46;;;;;;;3.77;1.87;;;;;;;4.11;54.67;101718.75;20901894;28;20481;-90
2023/01/27 21:36:49;;;;;;;2.00;1.80;;;;;;;4.00;55.72;101717.66;20897690;28;20693;-87
2023/01/27 21:46:51;;;;;;;3.83;2.70;;;;;;;3.99;56.29;101721.56;20873114;28;20200;-89
2023/01/27 21:56:54;;;;;;;3.97;2.77;;;;;;;3.38;57.27;101708.16;20894760;28;20270;-90
2023/01/27 22:06:57;;;;;;;5.27;3.67;;;;;;;3.96;54.74;101716.47;20871988;28;20192;-87
2023/01/27 22:17:00;;;;;;;4.20;3.67;;;;;;;3.51;56.00;101713.47;20872850;28;20231;-88
2023/01/27 22:27:02;;;;;;;6.23;3.67;;;;;;;4.09;53.27;101720.94;20893950;28;20254;-87
2023/01/27 22:37:04;;;;;;;3.67;3.27;;;;;;;3.75;54.49;101714.31;20882766;28;20227;-87
2023/01/27 22:47:07;;;;;;;2.97;2.73;;;;;;;3.42;54.96;101710.22;20861358;28;20246;-86
2023/01/27 22:57:09;;;;;;;5.70;3.63;;;;;;;3.72;53.18;101710.09;20891933;28;20220;-88
2023/01/27 23:07:11;;;;;;;3.40;3.10;;;;;;;3.82;52.73;101704.78;20864305;28;20196;-85
2023/01/27 23:17:14;;;;;;;3.30;2.97;;;;;;;3.11;54.79;101708.59;20881619;28;20231;-91
2023/01/27 23:27:16;;;;;;;4.10;3.40;;;;;;;3.12;54.26;101731.66;20873537;28;20593;-88
2023/01/27 23:37:18;;;;;;;4.07;3.47;;;;;;;3.29;53.88;101730.75;20873779;28;20259;-89
2023/01/27 23:47:21;;;;;;;3.80;3.50;;;;;;;2.74;55.28;101737.59;20857829;28;20239;-90
2023/01/27 23:57:23;;;;;;;4.20;3.90;;;;;;;2.88;53.76;101720.50;20880432;28;20225;-89
